KMOT

Minot International Airport

Airport
ICAO code
KMOT
Summary
ICAO Region
NAM
ICAO Territory
Location

Minot, North Dakota,

Coordinates
48° 15' 33" N , 101° 16' 49" W
KCC
Airport CFIT
Altimeter Temperature Error Correction
Airport GND
Aircraft Ground De/Anti Icing
Airport RE
Landing on Contaminated Runways
Airport WX
Cumulonimbus
Metar
KMOT 222054Z 27015KT 10SM CLR 08/00 A2984 RMK AO2 SLP120 T00830000 56014

Description

Minot International Airport is a public airport located 3 km north of the central business district of Minot, a city in Ward County, North Dakota.

Climatology

Humid Continental climate (Köppen climate classification Dfb) - Variable weather patterns and a large seasonal temperature variance. Summers are often warm and humid with frequent thunderstorms and winters can be very cold with frequent snowfall and persistent snow cover.

Runways

Designator Length Width Surface Rops
8/26 1935 30 ASP Yes/Yes
13/31 2347 46 CON Yes/Yes

Airport map

Aerial View

SKYbrary Partners:

Safety knowledge contributed by: